sensor_id;sensor_type;location;lat;lon;timestamp;temperature;humidity
19359;DHT22;9815;52.334;20.890;2022-07-18T00:02:23;13.10;99.90
19359;DHT22;9815;52.334;20.890;2022-07-18T00:04:52;13.10;99.90
19359;DHT22;9815;52.334;20.890;2022-07-18T00:07:21;13.10;99.90
19359;DHT22;9815;52.334;20.890;2022-07-18T00:09:50;13.10;99.90
19359;DHT22;9815;52.334;20.890;2022-07-18T00:12:18;13.10;99.90
19359;DHT22;9815;52.334;20.890;2022-07-18T00:14:46;13.00;99.90
19359;DHT22;9815;52.334;20.890;2022-07-18T00:17:14;13.00;99.90
19359;DHT22;9815;52.334;20.890;2022-07-18T00:19:42;12.90;99.90
19359;DHT22;9815;52.334;20.890;2022-07-18T00:22:10;12.90;99.90
19359;DHT22;9815;52.334;20.890;2022-07-18T00:24:40;12.90;99.90
19359;DHT22;9815;52.334;20.890;2022-07-18T00:27:08;12.80;99.90
19359;DHT22;9815;52.334;20.890;2022-07-18T00:29:36;12.80;99.90
19359;DHT22;9815;52.334;20.890;2022-07-18T00:32:07;12.70;99.90
19359;DHT22;9815;52.334;20.890;2022-07-18T00:34:36;12.70;99.90
19359;DHT22;9815;52.334;20.890;2022-07-18T00:37:04;12.60;99.90
19359;DHT22;9815;52.334;20.890;2022-07-18T00:39:34;12.60;99.90
19359;DHT22;9815;52.334;20.890;2022-07-18T00:42:04;12.60;99.90
19359;DHT22;9815;52.334;20.890;2022-07-18T00:44:32;12.60;99.90
19359;DHT22;9815;52.334;20.890;2022-07-18T00:47:01;12.60;99.90
19359;DHT22;9815;52.334;20.890;2022-07-18T00:49:30;12.50;99.90
19359;DHT22;9815;52.334;20.890;2022-07-18T00:51:58;12.50;99.90
19359;DHT22;9815;52.334;20.890;2022-07-18T00:54:26;12.40;99.90
19359;DHT22;9815;52.334;20.890;2022-07-18T00:56:54;12.40;99.90
19359;DHT22;9815;52.334;20.890;2022-07-18T00:59:24;12.40;99.90
19359;DHT22;9815;52.334;20.890;2022-07-18T01:02:13;12.40;99.90
19359;DHT22;9815;52.334;20.890;2022-07-18T01:04:40;12.30;99.90
19359;DHT22;9815;52.334;20.890;2022-07-18T01:07:09;12.40;99.90
19359;DHT22;9815;52.334;20.890;2022-07-18T01:09:38;12.20;99.90
19359;DHT22;9815;52.334;20.890;2022-07-18T01:12:07;12.20;99.90
19359;DHT22;9815;52.334;20.890;2022-07-18T01:14:38;12.20;99.90
19359;DHT22;9815;52.334;20.890;2022-07-18T01:17:16;12.10;99.90
19359;DHT22;9815;52.334;20.890;2022-07-18T01:19:46;12.10;99.90
19359;DHT22;9815;52.334;20.890;2022-07-18T01:22:18;12.10;99.90
19359;DHT22;9815;52.334;20.890;2022-07-18T01:24:46;12.20;99.90
19359;DHT22;9815;52.334;20.890;2022-07-18T01:27:15;12.20;99.90
19359;DHT22;9815;52.334;20.890;2022-07-18T01:29:44;12.20;99.90
19359;DHT22;9815;52.334;20.890;2022-07-18T01:32:14;12.10;99.90
19359;DHT22;9815;52.334;20.890;2022-07-18T01:34:42;12.10;99.90
19359;DHT22;9815;52.334;20.890;2022-07-18T01:37:12;12.10;99.90
19359;DHT22;9815;52.334;20.890;2022-07-18T01:39:44;12.10;99.90
19359;DHT22;9815;52.334;20.890;2022-07-18T01:42:13;12.10;99.90
19359;DHT22;9815;52.334;20.890;2022-07-18T01:44:42;12.10;99.90
19359;DHT22;9815;52.334;20.890;2022-07-18T01:47:11;12.00;99.90
19359;DHT22;9815;52.334;20.890;2022-07-18T01:49:39;11.90;99.90
19359;DHT22;9815;52.334;20.890;2022-07-18T01:52:07;12.00;99.90
19359;DHT22;9815;52.334;20.890;2022-07-18T01:54:37;12.00;99.90
19359;DHT22;9815;52.334;20.890;2022-07-18T01:57:07;12.00;99.90
19359;DHT22;9815;52.334;20.890;2022-07-18T01:59:35;11.90;99.90
19359;DHT22;9815;52.334;20.890;2022-07-18T02:02:04;11.90;99.90
19359;DHT22;9815;52.334;20.890;2022-07-18T02:04:36;11.90;99.90
19359;DHT22;9815;52.334;20.890;2022-07-18T02:07:21;11.80;99.90
19359;DHT22;9815;52.334;20.890;2022-07-18T02:09:50;11.80;99.90
19359;DHT22;9815;52.334;20.890;2022-07-18T02:12:20;11.70;99.90
19359;DHT22;9815;52.334;20.890;2022-07-18T02:14:48;11.70;99.90
19359;DHT22;9815;52.334;20.890;2022-07-18T02:17:16;11.70;99.90
19359;DHT22;9815;52.334;20.890;2022-07-18T02:19:46;11.60;99.90
19359;DHT22;9815;52.334;20.890;2022-07-18T02:22:14;11.60;99.90
19359;DHT22;9815;52.334;20.890;2022-07-18T02:24:43;11.50;99.90
19359;DHT22;9815;52.334;20.890;2022-07-18T02:27:11;11.50;99.90
19359;DHT22;9815;52.334;20.890;2022-07-18T02:29:40;11.50;99.90
19359;DHT22;9815;52.334;20.890;2022-07-18T02:32:09;11.40;99.90
19359;DHT22;9815;52.334;20.890;2022-07-18T02:34:37;11.50;99.90
19359;DHT22;9815;52.334;20.890;2022-07-18T02:37:05;11.50;99.90
19359;DHT22;9815;52.334;20.890;2022-07-18T02:39:34;11.40;99.90
19359;DHT22;9815;52.334;20.890;2022-07-18T02:42:02;11.40;99.90
19359;DHT22;9815;52.334;20.890;2022-07-18T02:44:31;11.50;99.90
19359;DHT22;9815;52.334;20.890;2022-07-18T02:47:00;11.50;99.90
19359;DHT22;9815;52.334;20.890;2022-07-18T02:49:29;11.50;99.90
19359;DHT22;9815;52.334;20.890;2022-07-18T02:52:01;11.50;99.90
19359;DHT22;9815;52.334;20.890;2022-07-18T02:54:31;11.50;99.90
19359;DHT22;9815;52.334;20.890;2022-07-18T02:56:59;11.50;99.90
19359;DHT22;9815;52.334;20.890;2022-07-18T02:59:28;11.50;99.90
19359;DHT22;9815;52.334;20.890;2022-07-18T03:01:56;11.50;99.90
19359;DHT22;9815;52.334;20.890;2022-07-18T03:04:26;11.50;99.90
19359;DHT22;9815;52.334;20.890;2022-07-18T03:06:54;11.50;99.90
19359;DHT22;9815;52.334;20.890;2022-07-18T03:09:23;11.50;99.90
19359;DHT22;9815;52.334;20.890;2022-07-18T03:11:54;11.50;99.90
19359;DHT22;9815;52.334;20.890;2022-07-18T03:14:23;11.50;99.90
19359;DHT22;9815;52.334;20.890;2022-07-18T03:16:51;11.50;99.90
19359;DHT22;9815;52.334;20.890;2022-07-18T03:19:19;11.50;99.90
19359;DHT22;9815;52.334;20.890;2022-07-18T03:21:49;11.50;99.90
19359;DHT22;9815;52.334;20.890;2022-07-18T03:24:18;11.50;99.90
19359;DHT22;9815;52.334;20.890;2022-07-18T03:26:46;11.60;99.90
19359;DHT22;9815;52.334;20.890;2022-07-18T03:29:14;11.60;99.90
19359;DHT22;9815;52.334;20.890;2022-07-18T03:31:42;11.60;99.90
19359;DHT22;9815;52.334;20.890;2022-07-18T03:34:10;11.70;99.90
19359;DHT22;9815;52.334;20.890;2022-07-18T03:36:39;11.70;99.90
19359;DHT22;9815;52.334;20.890;2022-07-18T03:39:09;11.70;99.90
19359;DHT22;9815;52.334;20.890;2022-07-18T03:41:38;11.70;99.90
19359;DHT22;9815;52.334;20.890;2022-07-18T03:44:06;11.80;99.90
19359;DHT22;9815;52.334;20.890;2022-07-18T03:46:35;11.80;99.90
19359;DHT22;9815;52.334;20.890;2022-07-18T03:49:04;11.80;99.90
19359;DHT22;9815;52.334;20.890;2022-07-18T03:51:32;11.90;99.90
19359;DHT22;9815;52.334;20.890;2022-07-18T03:54:00;11.90;99.90
19359;DHT22;9815;52.334;20.890;2022-07-18T03:56:30;12.00;99.90
19359;DHT22;9815;52.334;20.890;2022-07-18T03:58:58;12.10;99.90
19359;DHT22;9815;52.334;20.890;2022-07-18T04:01:27;12.10;99.90
19359;DHT22;9815;52.334;20.890;2022-07-18T04:03:55;12.20;99.90
19359;DHT22;9815;52.334;20.890;2022-07-18T04:06:24;12.30;99.90
19359;DHT22;9815;52.334;20.890;2022-07-18T04:08:52;12.30;99.90
19359;DHT22;9815;52.334;20.890;2022-07-18T04:11:20;12.30;99.90
19359;DHT22;9815;52.334;20.890;2022-07-18T04:13:53;12.30;99.90
19359;DHT22;9815;52.334;20.890;2022-07-18T04:16:22;12.40;99.90
19359;DHT22;9815;52.334;20.890;2022-07-18T04:18:51;12.40;99.90
19359;DHT22;9815;52.334;20.890;2022-07-18T04:21:19;12.50;99.90
19359;DHT22;9815;52.334;20.890;2022-07-18T04:23:47;12.50;99.90
19359;DHT22;9815;52.334;20.890;2022-07-18T04:26:16;12.60;99.90
19359;DHT22;9815;52.334;20.890;2022-07-18T04:28:45;12.60;99.90
19359;DHT22;9815;52.334;20.890;2022-07-18T04:31:14;12.70;99.90
19359;DHT22;9815;52.334;20.890;2022-07-18T04:33:42;12.80;99.90
19359;DHT22;9815;52.334;20.890;2022-07-18T04:36:11;12.90;99.90
19359;DHT22;9815;52.334;20.890;2022-07-18T04:38:39;13.00;99.90
19359;DHT22;9815;52.334;20.890;2022-07-18T04:41:08;13.10;99.90
19359;DHT22;9815;52.334;20.890;2022-07-18T04:43:36;13.10;99.90
19359;DHT22;9815;52.334;20.890;2022-07-18T04:46:04;13.30;99.90
19359;DHT22;9815;52.334;20.890;2022-07-18T04:48:34;13.40;99.90
19359;DHT22;9815;52.334;20.890;2022-07-18T04:51:03;13.40;99.90
19359;DHT22;9815;52.334;20.890;2022-07-18T04:53:32;13.50;99.90
19359;DHT22;9815;52.334;20.890;2022-07-18T04:56:00;13.60;99.90
19359;DHT22;9815;52.334;20.890;2022-07-18T04:58:28;13.70;99.90
19359;DHT22;9815;52.334;20.890;2022-07-18T05:00:56;13.80;99.90
19359;DHT22;9815;52.334;20.890;2022-07-18T05:03:25;14.00;99.90
19359;DHT22;9815;52.334;20.890;2022-07-18T05:05:54;14.10;99.90
19359;DHT22;9815;52.334;20.890;2022-07-18T05:08:22;14.20;99.90
19359;DHT22;9815;52.334;20.890;2022-07-18T05:10:51;14.40;99.90
19359;DHT22;9815;52.334;20.890;2022-07-18T05:13:19;14.40;99.90
19359;DHT22;9815;52.334;20.890;2022-07-18T05:15:47;14.50;99.90
19359;DHT22;9815;52.334;20.890;2022-07-18T05:18:15;14.60;99.90
19359;DHT22;9815;52.334;20.890;2022-07-18T05:20:43;14.80;99.90
19359;DHT22;9815;52.334;20.890;2022-07-18T05:23:15;14.90;99.90
19359;DHT22;9815;52.334;20.890;2022-07-18T05:25:43;14.90;99.90
19359;DHT22;9815;52.334;20.890;2022-07-18T05:28:11;15.10;99.90
19359;DHT22;9815;52.334;20.890;2022-07-18T05:30:39;15.20;99.90
19359;DHT22;9815;52.334;20.890;2022-07-18T05:33:08;15.20;99.80
19359;DHT22;9815;52.334;20.890;2022-07-18T05:35:36;15.40;99.00
19359;DHT22;9815;52.334;20.890;2022-07-18T05:38:04;15.50;99.90
19359;DHT22;9815;52.334;20.890;2022-07-18T05:40:34;15.60;99.90
19359;DHT22;9815;52.334;20.890;2022-07-18T05:43:02;15.80;98.70
19359;DHT22;9815;52.334;20.890;2022-07-18T05:45:31;15.90;98.10
19359;DHT22;9815;52.334;20.890;2022-07-18T05:47:59;16.10;95.60
19359;DHT22;9815;52.334;20.890;2022-07-18T05:50:27;16.20;94.80
19359;DHT22;9815;52.334;20.890;2022-07-18T05:52:56;16.30;98.00
19359;DHT22;9815;52.334;20.890;2022-07-18T05:55:24;16.40;95.80
19359;DHT22;9815;52.334;20.890;2022-07-18T05:57:54;16.50;93.30
19359;DHT22;9815;52.334;20.890;2022-07-18T06:00:22;16.50;93.40
19359;DHT22;9815;52.334;20.890;2022-07-18T06:02:50;16.70;94.10
19359;DHT22;9815;52.334;20.890;2022-07-18T06:05:19;16.70;93.30
19359;DHT22;9815;52.334;20.890;2022-07-18T06:07:51;16.80;94.00
19359;DHT22;9815;52.334;20.890;2022-07-18T06:10:21;16.80;94.60
19359;DHT22;9815;52.334;20.890;2022-07-18T06:12:50;16.80;93.60
19359;DHT22;9815;52.334;20.890;2022-07-18T06:15:20;16.90;93.00
19359;DHT22;9815;52.334;20.890;2022-07-18T06:17:48;17.00;94.00
19359;DHT22;9815;52.334;20.890;2022-07-18T06:20:17;17.10;91.40
19359;DHT22;9815;52.334;20.890;2022-07-18T06:22:45;17.10;92.00
19359;DHT22;9815;52.334;20.890;2022-07-18T06:25:14;17.20;93.20
19359;DHT22;9815;52.334;20.890;2022-07-18T06:27:43;17.30;92.60
19359;DHT22;9815;52.334;20.890;2022-07-18T06:30:12;17.40;89.60
19359;DHT22;9815;52.334;20.890;2022-07-18T06:32:42;17.40;92.40
19359;DHT22;9815;52.334;20.890;2022-07-18T06:35:10;17.50;91.70
19359;DHT22;9815;52.334;20.890;2022-07-18T06:37:38;17.40;91.30
19359;DHT22;9815;52.334;20.890;2022-07-18T06:40:07;17.50;88.70
19359;DHT22;9815;52.334;20.890;2022-07-18T06:42:36;17.60;89.90
19359;DHT22;9815;52.334;20.890;2022-07-18T06:45:06;17.70;86.20
19359;DHT22;9815;52.334;20.890;2022-07-18T06:47:41;17.80;84.70
19359;DHT22;9815;52.334;20.890;2022-07-18T06:50:10;17.80;86.20
19359;DHT22;9815;52.334;20.890;2022-07-18T06:52:39;17.80;83.60
19359;DHT22;9815;52.334;20.890;2022-07-18T06:55:09;17.80;82.00
19359;DHT22;9815;52.334;20.890;2022-07-18T06:57:39;17.70;81.40
19359;DHT22;9815;52.334;20.890;2022-07-18T07:00:09;17.80;84.70
19359;DHT22;9815;52.334;20.890;2022-07-18T07:02:44;17.90;82.80
19359;DHT22;9815;52.334;20.890;2022-07-18T07:05:13;18.00;84.20
19359;DHT22;9815;52.334;20.890;2022-07-18T07:07:43;18.10;84.70
19359;DHT22;9815;52.334;20.890;2022-07-18T07:10:15;18.30;81.20
19359;DHT22;9815;52.334;20.890;2022-07-18T07:12:45;18.30;79.20
19359;DHT22;9815;52.334;20.890;2022-07-18T07:15:15;18.40;80.00
19359;DHT22;9815;52.334;20.890;2022-07-18T07:17:45;18.40;82.70
19359;DHT22;9815;52.334;20.890;2022-07-18T07:20:15;18.30;80.50
19359;DHT22;9815;52.334;20.890;2022-07-18T07:22:46;18.30;81.60
19359;DHT22;9815;52.334;20.890;2022-07-18T07:25:15;18.30;81.70
19359;DHT22;9815;52.334;20.890;2022-07-18T07:27:44;18.40;83.40
19359;DHT22;9815;52.334;20.890;2022-07-18T07:30:14;18.50;80.60
19359;DHT22;9815;52.334;20.890;2022-07-18T07:32:45;18.60;79.10
19359;DHT22;9815;52.334;20.890;2022-07-18T07:35:15;18.60;81.40
19359;DHT22;9815;52.334;20.890;2022-07-18T07:37:47;18.70;80.00
19359;DHT22;9815;52.334;20.890;2022-07-18T07:40:16;19.00;76.50
19359;DHT22;9815;52.334;20.890;2022-07-18T07:42:45;19.10;73.80
19359;DHT22;9815;52.334;20.890;2022-07-18T07:45:14;19.20;75.70
19359;DHT22;9815;52.334;20.890;2022-07-18T07:47:42;19.40;74.20
19359;DHT22;9815;52.334;20.890;2022-07-18T07:50:14;19.70;70.70
19359;DHT22;9815;52.334;20.890;2022-07-18T07:52:42;19.80;71.70
19359;DHT22;9815;52.334;20.890;2022-07-18T07:55:10;20.20;68.90
19359;DHT22;9815;52.334;20.890;2022-07-18T07:57:39;20.90;65.00
19359;DHT22;9815;52.334;20.890;2022-07-18T08:00:08;21.30;63.40
19359;DHT22;9815;52.334;20.890;2022-07-18T08:02:50;21.90;59.80
19359;DHT22;9815;52.334;20.890;2022-07-18T08:05:28;22.50;56.70
19359;DHT22;9815;52.334;20.890;2022-07-18T08:07:59;22.90;55.60
19359;DHT22;9815;52.334;20.890;2022-07-18T08:10:28;23.00;55.70
19359;DHT22;9815;52.334;20.890;2022-07-18T08:12:59;22.70;55.20
19359;DHT22;9815;52.334;20.890;2022-07-18T08:15:33;22.20;57.20
19359;DHT22;9815;52.334;20.890;2022-07-18T08:18:03;21.80;58.40
19359;DHT22;9815;52.334;20.890;2022-07-18T08:20:34;22.20;60.00
19359;DHT22;9815;52.334;20.890;2022-07-18T08:23:08;22.60;56.70
19359;DHT22;9815;52.334;20.890;2022-07-18T08:25:43;23.20;55.80
19359;DHT22;9815;52.334;20.890;2022-07-18T08:28:13;23.10;54.40
19359;DHT22;9815;52.334;20.890;2022-07-18T08:30:41;22.70;55.40
19359;DHT22;9815;52.334;20.890;2022-07-18T08:33:10;22.20;57.10
19359;DHT22;9815;52.334;20.890;2022-07-18T08:35:40;22.00;57.70
19359;DHT22;9815;52.334;20.890;2022-07-18T08:38:09;22.10;59.10
19359;DHT22;9815;52.334;20.890;2022-07-18T08:40:39;22.20;57.90
19359;DHT22;9815;52.334;20.890;2022-07-18T08:43:08;21.90;57.10
19359;DHT22;9815;52.334;20.890;2022-07-18T08:45:55;21.60;59.20
19359;DHT22;9815;52.334;20.890;2022-07-18T08:48:24;21.30;60.90
19359;DHT22;9815;52.334;20.890;2022-07-18T08:50:54;21.20;61.60
19359;DHT22;9815;52.334;20.890;2022-07-18T08:53:23;21.10;62.60
19359;DHT22;9815;52.334;20.890;2022-07-18T08:55:51;20.80;63.50
19359;DHT22;9815;52.334;20.890;2022-07-18T08:58:20;21.10;63.90
19359;DHT22;9815;52.334;20.890;2022-07-18T09:01:10;21.80;59.80
19359;DHT22;9815;52.334;20.890;2022-07-18T09:03:39;22.70;57.10
19359;DHT22;9815;52.334;20.890;2022-07-18T09:06:10;23.00;55.20
19359;DHT22;9815;52.334;20.890;2022-07-18T09:08:40;23.30;52.80
19359;DHT22;9815;52.334;20.890;2022-07-18T09:11:10;23.70;54.20
19359;DHT22;9815;52.334;20.890;2022-07-18T09:13:59;24.00;52.00
19359;DHT22;9815;52.334;20.890;2022-07-18T09:16:27;24.80;50.80
19359;DHT22;9815;52.334;20.890;2022-07-18T09:18:56;25.10;47.80
19359;DHT22;9815;52.334;20.890;2022-07-18T09:21:26;25.30;47.60
19359;DHT22;9815;52.334;20.890;2022-07-18T09:24:02;25.40;48.40
19359;DHT22;9815;52.334;20.890;2022-07-18T09:26:38;24.90;47.30
19359;DHT22;9815;52.334;20.890;2022-07-18T09:29:07;24.90;47.90
19359;DHT22;9815;52.334;20.890;2022-07-18T09:31:53;25.10;48.00
19359;DHT22;9815;52.334;20.890;2022-07-18T09:34:33;25.30;47.70
19359;DHT22;9815;52.334;20.890;2022-07-18T09:37:04;25.80;45.70
19359;DHT22;9815;52.334;20.890;2022-07-18T09:39:33;25.60;45.90
19359;DHT22;9815;52.334;20.890;2022-07-18T09:42:14;25.10;48.70
19359;DHT22;9815;52.334;20.890;2022-07-18T09:44:56;24.40;49.30
19359;DHT22;9815;52.334;20.890;2022-07-18T09:47:25;24.50;48.60
19359;DHT22;9815;52.334;20.890;2022-07-18T09:49:54;24.70;47.60
19359;DHT22;9815;52.334;20.890;2022-07-18T09:52:24;24.80;47.40
19359;DHT22;9815;52.334;20.890;2022-07-18T09:55:03;24.70;47.90
19359;DHT22;9815;52.334;20.890;2022-07-18T09:57:32;24.50;49.00
19359;DHT22;9815;52.334;20.890;2022-07-18T10:00:01;24.50;48.20
19359;DHT22;9815;52.334;20.890;2022-07-18T10:02:38;24.40;49.10
19359;DHT22;9815;52.334;20.890;2022-07-18T10:05:11;23.90;48.80
19359;DHT22;9815;52.334;20.890;2022-07-18T10:07:40;23.30;50.40
19359;DHT22;9815;52.334;20.890;2022-07-18T10:10:16;23.50;51.40
19359;DHT22;9815;52.334;20.890;2022-07-18T10:12:45;23.30;51.20
19359;DHT22;9815;52.334;20.890;2022-07-18T10:15:14;22.80;52.60
19359;DHT22;9815;52.334;20.890;2022-07-18T10:17:43;23.30;51.40
19359;DHT22;9815;52.334;20.890;2022-07-18T10:20:12;24.30;49.80
19359;DHT22;9815;52.334;20.890;2022-07-18T10:22:43;24.60;48.50
19359;DHT22;9815;52.334;20.890;2022-07-18T10:25:14;24.50;49.60
19359;DHT22;9815;52.334;20.890;2022-07-18T10:27:51;24.40;49.80
19359;DHT22;9815;52.334;20.890;2022-07-18T10:30:31;24.20;51.20
19359;DHT22;9815;52.334;20.890;2022-07-18T10:33:00;24.30;50.10
19359;DHT22;9815;52.334;20.890;2022-07-18T10:36:00;24.70;49.40
19359;DHT22;9815;52.334;20.890;2022-07-18T10:39:02;25.40;49.20
19359;DHT22;9815;52.334;20.890;2022-07-18T10:41:31;25.90;46.00
19359;DHT22;9815;52.334;20.890;2022-07-18T10:44:00;26.40;44.80
19359;DHT22;9815;52.334;20.890;2022-07-18T10:47:03;26.80;44.80
19359;DHT22;9815;52.334;20.890;2022-07-18T10:50:06;26.30;45.10
19359;DHT22;9815;52.334;20.890;2022-07-18T10:52:57;25.50;45.80
19359;DHT22;9815;52.334;20.890;2022-07-18T10:55:31;25.30;46.30
19359;DHT22;9815;52.334;20.890;2022-07-18T10:58:19;25.20;46.50
19359;DHT22;9815;52.334;20.890;2022-07-18T11:00:52;25.70;47.60
19359;DHT22;9815;52.334;20.890;2022-07-18T11:03:27;25.80;46.30
19359;DHT22;9815;52.334;20.890;2022-07-18T11:05:57;25.70;46.30
19359;DHT22;9815;52.334;20.890;2022-07-18T11:08:26;25.40;46.90
19359;DHT22;9815;52.334;20.890;2022-07-18T11:11:12;25.10;46.40
19359;DHT22;9815;52.334;20.890;2022-07-18T11:13:46;25.00;48.20
19359;DHT22;9815;52.334;20.890;2022-07-18T11:16:22;24.90;47.90
19359;DHT22;9815;52.334;20.890;2022-07-18T11:21:58;25.00;48.70
19359;DHT22;9815;52.334;20.890;2022-07-18T11:24:27;24.80;49.10
19359;DHT22;9815;52.334;20.890;2022-07-18T11:26:57;24.50;49.70
19359;DHT22;9815;52.334;20.890;2022-07-18T11:29:25;24.20;49.60
19359;DHT22;9815;52.334;20.890;2022-07-18T11:31:57;23.80;50.70
19359;DHT22;9815;52.334;20.890;2022-07-18T11:34:26;23.50;50.70
19359;DHT22;9815;52.334;20.890;2022-07-18T11:37:06;23.10;52.10
19359;DHT22;9815;52.334;20.890;2022-07-18T11:39:35;23.00;52.60
19359;DHT22;9815;52.334;20.890;2022-07-18T11:42:04;22.90;54.20
19359;DHT22;9815;52.334;20.890;2022-07-18T11:44:33;23.20;53.40
19359;DHT22;9815;52.334;20.890;2022-07-18T11:47:03;24.10;53.30
19359;DHT22;9815;52.334;20.890;2022-07-18T11:49:33;25.20;50.70
19359;DHT22;9815;52.334;20.890;2022-07-18T11:52:01;25.90;46.60
19359;DHT22;9815;52.334;20.890;2022-07-18T11:54:30;26.30;46.10
19359;DHT22;9815;52.334;20.890;2022-07-18T11:57:00;26.50;44.80
19359;DHT22;9815;52.334;20.890;2022-07-18T11:59:38;26.80;45.90
19359;DHT22;9815;52.334;20.890;2022-07-18T12:02:07;27.10;43.50
19359;DHT22;9815;52.334;20.890;2022-07-18T12:04:36;26.90;43.60
19359;DHT22;9815;52.334;20.890;2022-07-18T12:07:16;26.80;45.00
19359;DHT22;9815;52.334;20.890;2022-07-18T12:09:44;26.20;45.20
19359;DHT22;9815;52.334;20.890;2022-07-18T12:12:15;25.90;46.20
19359;DHT22;9815;52.334;20.890;2022-07-18T12:14:56;25.40;46.90
19359;DHT22;9815;52.334;20.890;2022-07-18T12:17:26;25.50;46.70
19359;DHT22;9815;52.334;20.890;2022-07-18T12:20:09;25.80;46.20
19359;DHT22;9815;52.334;20.890;2022-07-18T12:23:08;26.10;44.40
19359;DHT22;9815;52.334;20.890;2022-07-18T12:25:39;25.40;45.80
19359;DHT22;9815;52.334;20.890;2022-07-18T12:28:17;25.30;47.80
19359;DHT22;9815;52.334;20.890;2022-07-18T12:30:46;25.30;48.00
19359;DHT22;9815;52.334;20.890;2022-07-18T12:33:14;25.00;48.10
19359;DHT22;9815;52.334;20.890;2022-07-18T12:35:43;24.70;49.00
19359;DHT22;9815;52.334;20.890;2022-07-18T12:38:13;24.40;48.80
19359;DHT22;9815;52.334;20.890;2022-07-18T12:40:44;24.60;48.60
19359;DHT22;9815;52.334;20.890;2022-07-18T12:43:14;25.00;46.40
19359;DHT22;9815;52.334;20.890;2022-07-18T12:45:44;24.70;47.00
19359;DHT22;9815;52.334;20.890;2022-07-18T12:48:13;24.70;47.80
19359;DHT22;9815;52.334;20.890;2022-07-18T12:50:42;25.60;47.60
19359;DHT22;9815;52.334;20.890;2022-07-18T12:53:11;26.40;43.80
19359;DHT22;9815;52.334;20.890;2022-07-18T12:55:40;26.70;44.00
19359;DHT22;9815;52.334;20.890;2022-07-18T12:58:08;27.40;43.80
19359;DHT22;9815;52.334;20.890;2022-07-18T13:00:37;27.60;42.80
19359;DHT22;9815;52.334;20.890;2022-07-18T13:03:06;27.10;42.80
19359;DHT22;9815;52.334;20.890;2022-07-18T13:05:35;26.70;43.50
19359;DHT22;9815;52.334;20.890;2022-07-18T13:08:04;26.50;44.00
19359;DHT22;9815;52.334;20.890;2022-07-18T13:10:33;26.20;44.50
19359;DHT22;9815;52.334;20.890;2022-07-18T13:13:02;25.60;45.70
19359;DHT22;9815;52.334;20.890;2022-07-18T13:15:31;25.30;47.10
19359;DHT22;9815;52.334;20.890;2022-07-18T13:18:00;25.60;44.70
19359;DHT22;9815;52.334;20.890;2022-07-18T13:20:29;25.80;45.90
19359;DHT22;9815;52.334;20.890;2022-07-18T13:22:58;26.60;45.00
19359;DHT22;9815;52.334;20.890;2022-07-18T13:25:29;26.80;43.40
19359;DHT22;9815;52.334;20.890;2022-07-18T13:28:00;27.20;42.60
19359;DHT22;9815;52.334;20.890;2022-07-18T13:30:28;27.10;42.00
19359;DHT22;9815;52.334;20.890;2022-07-18T13:32:56;27.10;42.00
19359;DHT22;9815;52.334;20.890;2022-07-18T13:35:25;27.30;42.50
19359;DHT22;9815;52.334;20.890;2022-07-18T13:37:54;27.00;40.70
19359;DHT22;9815;52.334;20.890;2022-07-18T13:40:23;26.70;42.60
19359;DHT22;9815;52.334;20.890;2022-07-18T13:42:54;26.50;43.20
19359;DHT22;9815;52.334;20.890;2022-07-18T13:45:23;26.40;43.20
19359;DHT22;9815;52.334;20.890;2022-07-18T13:47:51;26.70;42.80
19359;DHT22;9815;52.334;20.890;2022-07-18T13:50:20;26.90;41.80
19359;DHT22;9815;52.334;20.890;2022-07-18T13:52:48;27.10;41.80
19359;DHT22;9815;52.334;20.890;2022-07-18T13:55:18;27.30;39.90
19359;DHT22;9815;52.334;20.890;2022-07-18T13:57:46;27.40;40.70
19359;DHT22;9815;52.334;20.890;2022-07-18T14:00:15;27.60;40.60
19359;DHT22;9815;52.334;20.890;2022-07-18T14:02:45;27.40;39.80
19359;DHT22;9815;52.334;20.890;2022-07-18T14:05:13;27.10;40.30
19359;DHT22;9815;52.334;20.890;2022-07-18T14:07:42;27.10;41.60
19359;DHT22;9815;52.334;20.890;2022-07-18T14:10:12;27.00;40.10
19359;DHT22;9815;52.334;20.890;2022-07-18T14:12:42;27.10;39.30
19359;DHT22;9815;52.334;20.890;2022-07-18T14:15:11;27.30;40.30
19359;DHT22;9815;52.334;20.890;2022-07-18T14:17:40;27.60;39.50
19359;DHT22;9815;52.334;20.890;2022-07-18T14:20:09;27.20;39.80
19359;DHT22;9815;52.334;20.890;2022-07-18T14:22:39;27.10;39.70
19359;DHT22;9815;52.334;20.890;2022-07-18T14:25:09;27.20;39.80
19359;DHT22;9815;52.334;20.890;2022-07-18T14:27:38;27.50;40.60
19359;DHT22;9815;52.334;20.890;2022-07-18T14:30:09;27.60;39.60
19359;DHT22;9815;52.334;20.890;2022-07-18T14:32:38;27.30;39.40
19359;DHT22;9815;52.334;20.890;2022-07-18T14:35:08;26.90;40.70
19359;DHT22;9815;52.334;20.890;2022-07-18T14:37:37;26.80;41.80
19359;DHT22;9815;52.334;20.890;2022-07-18T14:40:06;26.50;42.60
19359;DHT22;9815;52.334;20.890;2022-07-18T14:42:34;26.60;41.30
19359;DHT22;9815;52.334;20.890;2022-07-18T14:45:03;26.10;42.20
19359;DHT22;9815;52.334;20.890;2022-07-18T14:47:33;25.90;44.80
19359;DHT22;9815;52.334;20.890;2022-07-18T14:50:03;25.40;43.20
19359;DHT22;9815;52.334;20.890;2022-07-18T14:52:32;25.60;44.10
19359;DHT22;9815;52.334;20.890;2022-07-18T14:55:01;25.80;43.00
19359;DHT22;9815;52.334;20.890;2022-07-18T14:57:29;25.80;42.70
19359;DHT22;9815;52.334;20.890;2022-07-18T14:59:57;25.60;43.40
19359;DHT22;9815;52.334;20.890;2022-07-18T15:02:26;25.40;43.00
19359;DHT22;9815;52.334;20.890;2022-07-18T15:04:55;25.20;42.70
19359;DHT22;9815;52.334;20.890;2022-07-18T15:07:24;25.10;43.10
19359;DHT22;9815;52.334;20.890;2022-07-18T15:09:52;25.20;44.30
19359;DHT22;9815;52.334;20.890;2022-07-18T15:12:20;25.30;42.60
19359;DHT22;9815;52.334;20.890;2022-07-18T15:14:49;25.10;43.90
19359;DHT22;9815;52.334;20.890;2022-07-18T15:17:17;25.30;44.00
19359;DHT22;9815;52.334;20.890;2022-07-18T15:19:45;25.50;44.40
19359;DHT22;9815;52.334;20.890;2022-07-18T15:22:15;25.90;43.50
19359;DHT22;9815;52.334;20.890;2022-07-18T15:24:43;25.70;44.30
19359;DHT22;9815;52.334;20.890;2022-07-18T15:27:12;26.00;42.90
19359;DHT22;9815;52.334;20.890;2022-07-18T15:29:40;26.00;43.10
19359;DHT22;9815;52.334;20.890;2022-07-18T15:32:08;25.90;42.00
19359;DHT22;9815;52.334;20.890;2022-07-18T15:34:37;25.70;42.60
19359;DHT22;9815;52.334;20.890;2022-07-18T15:37:06;25.30;44.90
19359;DHT22;9815;52.334;20.890;2022-07-18T15:39:36;25.00;44.40
19359;DHT22;9815;52.334;20.890;2022-07-18T15:42:04;24.80;45.30
19359;DHT22;9815;52.334;20.890;2022-07-18T15:44:32;24.60;45.40
19359;DHT22;9815;52.334;20.890;2022-07-18T15:47:05;24.60;46.20
19359;DHT22;9815;52.334;20.890;2022-07-18T15:49:35;25.10;46.40
19359;DHT22;9815;52.334;20.890;2022-07-18T15:52:04;25.70;45.10
19359;DHT22;9815;52.334;20.890;2022-07-18T15:54:33;25.80;45.60